Flugplatz Walldorf

Für EDGX sind keine METAR/TAF Berichte vorhanden.
Es werden die Flugwettermeldungen vom Flugplatz Mannheim-City in 21 km Entfernung angezeigt.

Bericht für EDFM

vom 28.01. um 15:50 UTC

Wind 15 kt aus 250° in Böen 27 kt

Sichtweite 10 km oder mehr

gering bewölkt in 1200 ft

aufgelockert bewölkt in 2500 ft

Temperatur 5.0°C

Taupunkt 1.0°C

Luftfeuchtigkeit 75%

Luftdruck 1003 hPa

EDFM 281550Z 25015G27KT 210V270 9999 FEW012 SCT025 05/01 Q1003

Prognose für EDFM

vom 28.01. um 00:00 UTC

Zwischen 00:00 UTC und 00:00 UTC

Wind 14 kt aus 230°

Sichtweite 10 km oder mehr

aufgelockert bewölkt in 3000 ft


Zwischen 00:00 UTC und 00:00 UTC zeitweise

Wind 20 kt aus 240° in Böen 35 kt

Sichtweite 4000 m

Regenschauer

Schneeschauer

aufgebrochene Bewölkung in 1200 ft


Zwischen 00:00 UTC und 00:00 UTC zeitweise mit einer Wahrscheinlichkeit von 30%

Sichtweite 2500 m

Code: TSGS

TAF EDFM 281400Z 2815/2821 23014KT 9999 SCT030 TEMPO 2815/2821 24020G35KT 4000 SHRASN BKN012CB PROB30 TEMPO 2815/2821 2500 TSGS
Impressum